Time;durP1;ratioP1;P1;durP2;ratioP2;P2;SDS_P1;SDS_P2;PMS_P1;PMS_P2;Temp;Humidity;BMP_temperature;BMP_pressure;BME280_temperature;BME280_humidity;BME280_pressure;Samples;Min_cycle;Max_cycle;Signal;HPM_P1;HPM_P2
2022/06/18 00:00:17;;;;;;;6.43;5.93;;;;;24.50;100761.00;;;;2043096;28;20223;-66
2022/06/18 00:01:18;;;;;;;5.55;5.15;;;;;24.50;100752.00;;;;2043564;28;20228;-66
2022/06/18 00:02:18;;;;;;;6.60;6.00;;;;;24.50;100745.00;;;;2043612;28;20216;-66
2022/06/18 00:03:19;;;;;;;6.63;6.03;;;;;24.50;100753.00;;;;2042664;28;20220;-66
2022/06/18 00:04:21;;;;;;;6.37;5.67;;;;;24.50;100748.00;;;;2042914;28;20209;-66
2022/06/18 00:05:22;;;;;;;6.75;6.07;;;;;24.50;100751.00;;;;2043817;28;20212;-66
2022/06/18 00:06:22;;;;;;;6.50;5.77;;;;;24.50;100749.00;;;;2043789;28;20216;-66
2022/06/18 00:07:22;;;;;;;6.17;5.67;;;;;24.50;100747.00;;;;2044159;28;20249;-67
2022/06/18 00:08:28;;;;;;;6.70;5.97;;;;;24.50;100750.00;;;;2043670;28;20341;-66
2022/06/18 00:09:33;;;;;;;6.55;5.03;;;;;24.50;100748.00;;;;2035580;28;20217;-65
2022/06/18 00:10:34;;;;;;;7.87;6.43;;;;;24.50;100740.00;;;;2036120;29;20222;-65
2022/06/18 00:14:12;;;;;;;7.05;5.55;;;;;24.50;100745.00;;;;2042731;28;20302;-65
2022/06/18 00:15:14;;;;;;;6.67;5.50;;;;;24.40;100745.00;;;;2043296;28;20217;-65
2022/06/18 00:16:16;;;;;;;7.05;5.57;;;;;24.40;100742.00;;;;2042924;28;20719;-66
2022/06/18 00:17:17;;;;;;;7.20;5.45;;;;;24.40;100737.00;;;;2034671;29;20212;-66
2022/06/18 00:18:18;;;;;;;6.13;5.57;;;;;24.40;100732.00;;;;2034526;29;20217;-65
2022/06/18 00:19:18;;;;;;;6.80;6.10;;;;;24.40;100740.00;;;;2044066;28;20276;-65
2022/06/18 00:20:19;;;;;;;6.87;5.27;;;;;24.40;100734.00;;;;2044288;28;20646;-65
2022/06/18 00:21:20;;;;;;;6.50;5.73;;;;;24.50;100735.00;;;;2043409;29;20276;-65
2022/06/18 00:22:21;;;;;;;9.97;5.60;;;;;24.50;100730.00;;;;2035721;28;20565;-65
2022/06/18 00:23:21;;;;;;;7.38;6.68;;;;;24.50;100734.00;;;;2034831;29;20485;-65
2022/06/18 00:24:21;;;;;;;6.03;5.33;;;;;24.50;100736.00;;;;2034823;29;20213;-66
2022/06/18 00:25:23;;;;;;;7.10;5.63;;;;;24.50;100725.00;;;;2042739;28;20246;-65
2022/06/18 00:26:23;;;;;;;7.10;5.43;;;;;24.50;100734.00;;;;2042746;28;20219;-66
2022/06/18 00:27:24;;;;;;;6.93;5.63;;;;;24.50;100729.00;;;;2042825;28;20267;-65
2022/06/18 00:28:26;;;;;;;7.63;6.17;;;;;24.50;100732.00;;;;2043377;28;20597;-65
2022/06/18 00:29:26;;;;;;;6.83;5.33;;;;;24.50;100726.00;;;;2043262;28;20221;-65
2022/06/18 00:30:28;;;;;;;6.93;6.10;;;;;24.50;100728.00;;;;2043456;28;20456;-65
2022/06/18 00:31:32;;;;;;;9.50;5.40;;;;;24.50;100727.00;;;;2043460;28;20224;-65
2022/06/18 00:32:32;;;;;;;6.70;5.90;;;;;24.50;100727.00;;;;2043162;28;20220;-66
2022/06/18 00:33:35;;;;;;;6.20;5.20;;;;;24.50;100725.00;;;;2043366;28;20220;-66
2022/06/18 00:34:36;;;;;;;5.40;4.95;;;;;24.50;100724.00;;;;2043781;28;20700;-65
2022/06/18 00:35:36;;;;;;;6.20;5.27;;;;;24.50;100713.00;;;;2044242;28;20221;-65
2022/06/18 00:36:37;;;;;;;6.93;5.80;;;;;24.50;100729.00;;;;2044153;28;20220;-65
2022/06/18 00:37:38;;;;;;;6.82;5.85;;;;;24.50;100711.00;;;;2043070;28;20877;-65
2022/06/18 00:38:40;;;;;;;6.80;5.40;;;;;24.50;100721.00;;;;2034925;28;20228;-65
2022/06/18 00:39:40;;;;;;;6.20;5.35;;;;;24.50;100724.00;;;;2042659;29;20566;-65
2022/06/18 00:40:42;;;;;;;6.07;5.23;;;;;24.50;100719.00;;;;2043188;28;20731;-65
2022/06/18 00:41:44;;;;;;;5.93;5.32;;;;;24.50;100713.00;;;;2034705;29;20325;-65
2022/06/18 00:42:45;;;;;;;7.13;5.25;;;;;24.50;100721.00;;;;2035036;28;20250;-65
2022/06/18 00:44:05;;;;;;;7.97;5.40;;;;;24.50;100726.00;;;;2042592;28;20235;-66
2022/06/18 00:45:05;;;;;;;5.70;5.20;;;;;24.50;100717.00;;;;2042650;28;20216;-66
2022/06/18 00:46:18;;;;;;;5.33;4.83;;;;;24.50;100723.00;;;;2042524;29;20715;-65
2022/06/18 00:47:22;;;;;;;6.20;5.68;;;;;24.50;100719.00;;;;2042398;28;20219;-65
2022/06/18 00:48:27;;;;;;;6.20;5.35;;;;;24.50;100722.00;;;;2026243;29;20217;-65
2022/06/18 00:49:31;;;;;;;5.75;5.00;;;;;24.50;100713.00;;;;2029157;29;20275;-65
2022/06/18 00:50:46;;;;;;;6.53;5.40;;;;;24.50;100714.00;;;;2044121;28;20225;-65
2022/06/18 00:51:53;;;;;;;5.30;4.80;;;;;24.50;100716.00;;;;2035871;29;20224;-66
2022/06/18 00:53:08;;;;;;;5.50;5.00;;;;;24.50;100713.00;;;;2031441;29;20221;-65
2022/06/18 00:54:12;;;;;;;7.65;5.10;;;;;24.50;100714.00;;;;2038531;28;20239;-65
2022/06/18 00:55:17;;;;;;;5.97;4.80;;;;;24.50;100698.00;;;;2035887;28;20302;-65
2022/06/18 00:56:21;;;;;;;5.30;4.80;;;;;24.50;100712.00;;;;2035119;29;20224;-66
2022/06/18 00:57:44;;;;;;;6.20;5.60;;;;;24.50;100712.00;;;;2035211;29;20296;-65
2022/06/18 00:58:49;;;;;;;5.63;4.85;;;;;24.50;100709.00;;;;2032574;29;20220;-66
2022/06/18 00:59:55;;;;;;;7.10;5.22;;;;;24.50;100710.00;;;;2035740;29;20221;-66
2022/06/18 01:00:55;;;;;;;6.07;4.90;;;;;24.50;100716.00;;;;2028011;29;20226;-66
2022/06/18 01:01:56;;;;;;;7.50;5.37;;;;;24.50;100699.00;;;;2027222;29;20693;-66
2022/06/18 01:02:56;;;;;;;8.23;4.90;;;;;24.50;100702.00;;;;2019334;29;20210;-66
2022/06/18 01:03:56;;;;;;;5.70;5.10;;;;;24.50;100707.00;;;;2034586;29;20217;-65
2022/06/18 01:04:57;;;;;;;5.87;5.23;;;;;24.50;100707.00;;;;2043197;28;20587;-64
2022/06/18 01:06:00;;;;;;;7.03;5.13;;;;;24.50;100701.00;;;;2043198;28;20209;-65
2022/06/18 01:07:15;;;;;;;6.10;5.10;;;;;24.50;100695.00;;;;2042870;29;20252;-65
2022/06/18 01:08:17;;;;;;;5.57;5.07;;;;;24.50;100707.00;;;;2037397;28;20461;-65
2022/06/18 01:09:17;;;;;;;5.70;5.20;;;;;24.50;100706.00;;;;2036506;29;20224;-65
2022/06/18 01:10:22;;;;;;;5.97;5.47;;;;;24.50;100707.00;;;;2042516;28;20223;-65
2022/06/18 01:11:26;;;;;;;6.38;4.80;;;;;24.50;100705.00;;;;2037186;29;20212;-65
2022/06/18 01:12:26;;;;;;;5.82;5.25;;;;;24.50;100698.00;;;;2039497;29;20246;-65
2022/06/18 01:13:29;;;;;;;6.30;5.13;;;;;24.50;100714.00;;;;2043805;28;20624;-65
2022/06/18 01:14:29;;;;;;;6.75;5.30;;;;;24.50;100711.00;;;;2043206;28;20216;-66
2022/06/18 01:15:30;;;;;;;5.47;4.80;;;;;24.50;100707.00;;;;2026689;29;20277;-65
2022/06/18 01:16:30;;;;;;;6.77;5.03;;;;;24.50;100699.00;;;;2037969;28;20240;-66
2022/06/18 01:17:30;;;;;;;5.10;4.60;;;;;24.50;100698.00;;;;2035971;29;20280;-65
2022/06/18 01:18:31;;;;;;;6.00;5.40;;;;;24.50;100702.00;;;;2035969;28;20221;-65
2022/06/18 01:19:34;;;;;;;5.50;4.83;;;;;24.50;100699.00;;;;2034498;28;20736;-66
2022/06/18 01:21:08;;;;;;;5.28;4.45;;;;;24.50;100701.00;;;;2043042;28;20770;-65
2022/06/18 01:22:47;;;;;;;8.75;4.80;;;;;24.50;100698.00;;;;2034922;29;20276;-65
2022/06/18 01:23:51;;;;;;;5.72;5.22;;;;;24.50;100696.00;;;;2019474;29;20221;-66
2022/06/18 01:24:52;;;;;;;5.65;5.15;;;;;24.50;100698.00;;;;2037339;28;20212;-66
2022/06/18 01:25:52;;;;;;;4.80;4.23;;;;;24.50;100702.00;;;;2043000;28;20667;-66
2022/06/18 01:26:53;;;;;;;5.63;5.03;;;;;24.40;100695.00;;;;2043164;28;20710;-66
2022/06/18 01:27:54;;;;;;;6.70;4.60;;;;;24.50;100694.00;;;;2042803;28;20675;-65
2022/06/18 01:28:54;;;;;;;5.03;4.10;;;;;24.50;100691.00;;;;2042337;28;20216;-65
2022/06/18 01:29:54;;;;;;;5.40;4.50;;;;;24.50;100698.00;;;;2042315;28;21011;-66
2022/06/18 01:30:55;;;;;;;5.23;4.73;;;;;24.50;100686.00;;;;2043749;28;20689;-65
2022/06/18 01:31:55;;;;;;;5.50;4.90;;;;;24.50;100694.00;;;;2035372;28;20697;-66
2022/06/18 01:32:56;;;;;;;6.43;5.07;;;;;24.50;100694.00;;;;2035195;29;20930;-65
2022/06/18 01:33:57;;;;;;;5.80;5.30;;;;;24.50;100687.00;;;;2035245;28;20209;-65
2022/06/18 01:34:57;;;;;;;4.93;4.43;;;;;24.50;100688.00;;;;2042324;28;20216;-65
2022/06/18 01:35:57;;;;;;;6.37;4.70;;;;;24.50;100692.00;;;;2042385;28;20485;-65
2022/06/18 01:36:59;;;;;;;5.20;4.70;;;;;24.50;100691.00;;;;2032524;28;20756;-65
2022/06/18 01:37:59;;;;;;;4.53;4.13;;;;;24.30;100695.00;;;;2034160;29;20671;-66
2022/06/18 01:38:59;;;;;;;5.93;4.60;;;;;24.50;100690.00;;;;2042709;28;20225;-65
2022/06/18 01:40:00;;;;;;;5.20;4.70;;;;;24.50;100685.00;;;;2035057;28;20369;-65
2022/06/18 01:42:37;;;;;;;5.72;5.00;;;;;24.50;100687.00;;;;2041162;28;20224;-66
2022/06/18 01:43:37;;;;;;;4.45;4.05;;;;;24.50;100693.00;;;;2030837;28;20707;-66
2022/06/18 01:44:39;;;;;;;5.37;4.80;;;;;24.50;100694.00;;;;2033575;29;20228;-66
2022/06/18 01:45:39;;;;;;;4.38;3.95;;;;;24.50;100686.00;;;;2034332;28;20281;-66
2022/06/18 01:46:41;;;;;;;5.37;4.87;;;;;24.50;100682.00;;;;2037792;28;20220;-65
2022/06/18 01:48:19;;;;;;;6.00;4.50;;;;;24.50;100687.00;;;;2034109;29;20238;-66
2022/06/18 01:49:25;;;;;;;5.05;4.55;;;;;24.50;100689.00;;;;2028825;29;20228;-65
2022/06/18 01:50:31;;;;;;;5.38;4.82;;;;;24.50;100688.00;;;;2030731;29;20226;-66
2022/06/18 01:51:36;;;;;;;4.55;4.15;;;;;24.50;100684.00;;;;2038906;29;20243;-65
2022/06/18 01:52:38;;;;;;;4.38;4.00;;;;;24.50;100677.00;;;;2034363;28;20763;-65
2022/06/18 01:53:45;;;;;;;4.70;4.30;;;;;24.50;100674.00;;;;2034656;29;20617;-65
2022/06/18 01:54:47;;;;;;;4.82;4.43;;;;;24.50;100685.00;;;;2034829;28;20227;-66
2022/06/18 01:55:53;;;;;;;4.70;4.30;;;;;24.50;100680.00;;;;2035489;28;20224;-66
2022/06/18 01:57:01;;;;;;;4.35;3.95;;;;;24.50;100682.00;;;;2035549;28;20213;-65
2022/06/18 01:58:08;;;;;;;6.15;4.47;;;;;24.50;100681.00;;;;2037708;28;20268;-65
2022/06/18 01:59:30;;;;;;;4.25;3.92;;;;;24.50;100685.00;;;;2035280;29;20222;-66
2022/06/18 02:00:30;;;;;;;4.88;4.47;;;;;24.50;100684.00;;;;2036593;29;20221;-65
2022/06/18 02:01:33;;;;;;;5.20;4.70;;;;;24.50;100676.00;;;;2034962;29;20312;-65
2022/06/18 02:02:34;;;;;;;5.05;4.18;;;;;24.50;100680.00;;;;2038519;29;20213;-65
2022/06/18 02:03:34;;;;;;;4.53;3.83;;;;;24.50;100683.00;;;;2027428;29;20232;-66
2022/06/18 02:04:34;;;;;;;4.60;4.20;;;;;24.50;100668.00;;;;2042935;28;20212;-66
2022/06/18 02:05:37;;;;;;;5.03;4.20;;;;;24.50;100677.00;;;;2034463;29;20216;-66
2022/06/18 02:06:38;;;;;;;4.95;4.18;;;;;24.50;100687.00;;;;2026881;29;20268;-65
2022/06/18 02:07:38;;;;;;;4.30;3.80;;;;;24.50;100690.00;;;;2041960;28;20245;-66
2022/06/18 02:08:38;;;;;;;4.73;4.23;;;;;24.50;100684.00;;;;2042881;28;20228;-66
2022/06/18 02:10:01;;;;;;;4.50;4.10;;;;;24.50;100671.00;;;;2027153;29;20226;-66
2022/06/18 02:11:03;;;;;;;4.72;4.22;;;;;24.50;100682.00;;;;2034533;28;20222;-65
2022/06/18 02:12:06;;;;;;;4.40;4.03;;;;;24.50;100687.00;;;;2042205;29;20706;-65
2022/06/18 02:13:07;;;;;;;4.55;4.15;;;;;24.50;100690.00;;;;2034744;29;20324;-65
2022/06/18 02:14:08;;;;;;;4.43;4.03;;;;;24.50;100682.00;;;;2035073;28;20213;-65
2022/06/18 02:15:11;;;;;;;5.22;4.13;;;;;24.50;100688.00;;;;2035163;29;20217;-65
2022/06/18 02:16:15;;;;;;;3.97;3.67;;;;;24.50;100693.00;;;;2028036;29;20312;-66
2022/06/18 02:17:18;;;;;;;4.45;4.10;;;;;24.50;100684.00;;;;2042328;28;20228;-66
2022/06/18 02:18:19;;;;;;;4.50;4.10;;;;;24.50;100683.00;;;;2042567;28;20706;-66
2022/06/18 02:19:20;;;;;;;4.65;4.25;;;;;24.40;100684.00;;;;2042775;28;20221;-65
2022/06/18 02:20:25;;;;;;;4.27;3.97;;;;;24.50;100669.00;;;;2034290;28;20217;-65
2022/06/18 02:21:25;;;;;;;4.65;4.00;;;;;24.50;100682.00;;;;2027580;29;20649;-66
2022/06/18 02:22:31;;;;;;;4.77;4.33;;;;;24.50;100677.00;;;;2035306;29;20232;-65
2022/06/18 02:23:31;;;;;;;5.20;4.13;;;;;24.50;100683.00;;;;2042690;28;20228;-62
2022/06/18 02:24:31;;;;;;;5.47;4.57;;;;;24.50;100670.00;;;;2042976;28;20236;-65
2022/06/18 02:25:32;;;;;;;4.30;3.90;;;;;24.50;100678.00;;;;2043525;28;20255;-65
2022/06/18 02:26:32;;;;;;;4.83;4.40;;;;;24.50;100678.00;;;;2042979;28;20208;-66
2022/06/18 02:27:32;;;;;;;4.10;3.70;;;;;24.50;100678.00;;;;2034771;28;20340;-65
2022/06/18 02:28:39;;;;;;;6.23;3.40;;;;;24.50;100680.00;;;;2041983;28;20275;-65
2022/06/18 02:29:39;;;;;;;4.40;4.00;;;;;24.50;100660.00;;;;2042769;28;20275;-65
2022/06/18 02:30:39;;;;;;;3.53;3.23;;;;;24.50;100673.00;;;;2034239;28;20361;-66
2022/06/18 02:31:45;;;;;;;3.97;3.60;;;;;24.50;100668.00;;;;2034902;29;20217;-65
2022/06/18 02:32:48;;;;;;;3.95;3.65;;;;;24.50;100678.00;;;;2042976;28;20284;-65
2022/06/18 02:33:54;;;;;;;4.05;3.70;;;;;24.50;100678.00;;;;2042843;28;20224;-66
2022/06/18 02:34:55;;;;;;;3.70;3.40;;;;;24.50;100679.00;;;;2034824;28;20216;-65
2022/06/18 02:35:56;;;;;;;4.10;3.70;;;;;24.50;100682.00;;;;2042217;28;20212;-65
2022/06/18 02:36:59;;;;;;;4.30;3.90;;;;;24.50;100671.00;;;;2042138;28;20803;-65
2022/06/18 02:37:59;;;;;;;5.00;4.50;;;;;24.50;100675.00;;;;2034296;28;20215;-65
2022/06/18 02:39:15;;;;;;;4.13;3.73;;;;;24.50;100679.00;;;;2041897;28;20649;-65
2022/06/18 02:40:20;;;;;;;5.00;3.40;;;;;24.50;100673.00;;;;2042847;28;20223;-65
2022/06/18 02:41:20;;;;;;;4.20;3.90;;;;;24.50;100669.00;;;;2042012;28;20679;-65
2022/06/18 02:42:21;;;;;;;4.10;3.67;;;;;24.20;100667.00;;;;2042136;28;20231;-66
2022/06/18 02:43:21;;;;;;;4.87;4.37;;;;;24.50;100668.00;;;;2042460;29;20673;-65
2022/06/18 02:44:21;;;;;;;4.73;4.30;;;;;24.50;100670.00;;;;2035015;28;20313;-65
2022/06/18 02:45:22;;;;;;;4.60;4.20;;;;;24.50;100668.00;;;;2042532;28;20221;-65
2022/06/18 02:46:22;;;;;;;4.40;3.90;;;;;24.50;100670.00;;;;2035045;29;20225;-65
2022/06/18 02:47:22;;;;;;;4.17;3.87;;;;;24.50;100669.00;;;;2034637;29;20225;-65
2022/06/18 02:48:25;;;;;;;3.97;3.57;;;;;24.50;100672.00;;;;2041833;28;20216;-65
2022/06/18 02:49:25;;;;;;;4.43;4.07;;;;;24.50;100674.00;;;;2034371;28;20225;-65
2022/06/18 02:50:29;;;;;;;4.50;3.70;;;;;24.50;100666.00;;;;2042067;28;20653;-65
2022/06/18 02:51:32;;;;;;;4.25;3.80;;;;;24.50;100662.00;;;;2043399;28;20747;-65
2022/06/18 02:52:35;;;;;;;4.38;3.65;;;;;24.50;100673.00;;;;2036724;28;20227;-65
2022/06/18 02:53:36;;;;;;;4.30;3.53;;;;;24.50;100672.00;;;;2037054;29;20588;-65
2022/06/18 02:54:36;;;;;;;3.90;3.50;;;;;24.50;100671.00;;;;2043553;28;20235;-65
2022/06/18 02:55:38;;;;;;;4.40;4.10;;;;;24.50;100670.00;;;;2044260;28;20283;-65
2022/06/18 02:56:38;;;;;;;4.63;4.13;;;;;24.50;100671.00;;;;2044131;28;20234;-65
2022/06/18 02:57:39;;;;;;;4.53;3.40;;;;;24.50;100673.00;;;;2043925;28;20223;-66
2022/06/18 02:58:43;;;;;;;4.10;3.70;;;;;24.50;100673.00;;;;2043829;28;20237;-65
2022/06/18 02:59:43;;;;;;;3.95;3.60;;;;;24.50;100674.00;;;;2044327;28;20232;-65
2022/06/18 03:00:55;;;;;;;4.10;3.70;;;;;24.50;100675.00;;;;2044878;28;20216;-65
2022/06/18 03:01:55;;;;;;;4.53;4.10;;;;;24.50;100672.00;;;;2044691;28;20292;-66
2022/06/18 03:02:55;;;;;;;3.90;3.50;;;;;24.50;100683.00;;;;2044268;28;20224;-65
2022/06/18 03:03:57;;;;;;;4.40;4.00;;;;;24.50;100679.00;;;;2044923;28;20315;-65
2022/06/18 03:04:58;;;;;;;4.25;3.70;;;;;24.50;100682.00;;;;2043784;28;20216;-65
2022/06/18 03:05:58;;;;;;;4.60;4.00;;;;;24.50;100675.00;;;;2043538;29;20237;-65
2022/06/18 03:06:59;;;;;;;4.40;3.87;;;;;24.50;100679.00;;;;2043277;28;20223;-65
2022/06/18 03:08:00;;;;;;;4.30;3.88;;;;;24.50;100679.00;;;;2043222;28;20213;-65
2022/06/18 03:09:00;;;;;;;4.00;3.60;;;;;24.50;100685.00;;;;2044349;28;20223;-65
2022/06/18 03:12:42;;;;;;;4.40;3.67;;;;;24.50;100678.00;;;;2043818;28;20298;-65
2022/06/18 03:13:42;;;;;;;4.30;3.60;;;;;24.50;100678.00;;;;2044105;28;20212;-65
2022/06/18 03:14:43;;;;;;;3.60;3.30;;;;;24.50;100681.00;;;;2044028;28;20285;-65
2022/06/18 03:15:47;;;;;;;3.77;3.47;;;;;24.50;100682.00;;;;2044131;28;20232;-65
2022/06/18 03:16:48;;;;;;;4.47;3.70;;;;;24.50;100685.00;;;;2044887;28;20267;-65
2022/06/18 03:17:48;;;;;;;3.93;3.53;;;;;24.50;100677.00;;;;2043766;28;20700;-65
2022/06/18 03:18:50;;;;;;;4.40;3.93;;;;;24.50;100682.00;;;;2036081;29;20460;-65
2022/06/18 03:19:54;;;;;;;4.18;3.53;;;;;24.50;100680.00;;;;2043433;28;20227;-65
2022/06/18 03:21:17;;;;;;;3.80;3.50;;;;;24.50;100684.00;;;;2035188;29;20209;-65
2022/06/18 03:22:19;;;;;;;4.10;3.70;;;;;24.50;100684.00;;;;2037054;29;20220;-65
2022/06/18 03:23:19;;;;;;;3.95;3.60;;;;;24.50;100685.00;;;;2041972;29;20225;-65
2022/06/18 03:24:19;;;;;;;3.90;3.60;;;;;24.50;100687.00;;;;2043482;28;20224;-65
2022/06/18 03:25:20;;;;;;;4.20;3.60;;;;;24.50;100688.00;;;;2044014;28;20216;-65
2022/06/18 03:26:20;;;;;;;3.53;3.23;;;;;24.50;100694.00;;;;2043993;28;20217;-65
2022/06/18 03:27:20;;;;;;;3.73;3.43;;;;;24.50;100690.00;;;;2043580;28;20227;-65
2022/06/18 03:28:21;;;;;;;3.77;3.47;;;;;24.50;100691.00;;;;2035554;29;20217;-65
2022/06/18 03:29:22;;;;;;;3.72;3.33;;;;;24.50;100684.00;;;;2036086;28;20286;-65
2022/06/18 03:30:22;;;;;;;3.40;3.10;;;;;24.50;100682.00;;;;2044826;28;20277;-65
2022/06/18 03:31:22;;;;;;;3.80;3.50;;;;;24.50;100688.00;;;;2044694;28;20219;-65
2022/06/18 03:32:23;;;;;;;3.40;3.10;;;;;24.50;100694.00;;;;2044613;28;20235;-65
2022/06/18 03:33:23;;;;;;;3.73;3.30;;;;;24.50;100693.00;;;;2043718;28;20227;-65
2022/06/18 03:34:23;;;;;;;3.80;3.40;;;;;24.50;100694.00;;;;2043888;28;20223;-65
2022/06/18 03:35:24;;;;;;;3.80;3.40;;;;;24.50;100686.00;;;;2043901;28;20592;-65
2022/06/18 03:36:24;;;;;;;4.00;3.60;;;;;24.50;100693.00;;;;2037992;28;20939;-66
2022/06/18 03:37:24;;;;;;;3.50;3.20;;;;;24.50;100696.00;;;;2042946;28;20216;-66
2022/06/18 03:38:25;;;;;;;3.70;3.40;;;;;24.50;100694.00;;;;2043983;28;20224;-65
2022/06/18 03:39:25;;;;;;;3.40;3.10;;;;;24.50;100689.00;;;;2044415;28;20225;-66
2022/06/18 03:40:25;;;;;;;4.17;3.30;;;;;24.50;100694.00;;;;2043807;28;20224;-65
2022/06/18 03:41:26;;;;;;;3.50;3.20;;;;;24.50;100684.00;;;;2043267;29;20231;-65
2022/06/18 03:42:26;;;;;;;6.13;3.27;;;;;24.50;100692.00;;;;2043734;28;20228;-65
2022/06/18 03:43:27;;;;;;;3.63;3.13;;;;;24.50;100693.00;;;;2042850;28;20220;-65
2022/06/18 03:44:27;;;;;;;3.47;3.17;;;;;24.50;100686.00;;;;2042842;28;20235;-65
2022/06/18 03:45:29;;;;;;;3.60;3.30;;;;;24.50;100695.00;;;;2043871;28;20290;-65
2022/06/18 03:46:29;;;;;;;3.58;3.28;;;;;24.50;100695.00;;;;2044512;28;20592;-65
2022/06/18 03:47:29;;;;;;;3.53;3.23;;;;;24.50;100697.00;;;;2044384;28;20223;-65
2022/06/18 03:48:42;;;;;;;3.53;3.30;;;;;24.50;100692.00;;;;2035898;28;20217;-65
2022/06/18 03:49:43;;;;;;;3.33;3.03;;;;;24.50;100696.00;;;;2036589;28;20212;-65
2022/06/18 03:50:43;;;;;;;3.10;2.90;;;;;24.50;100698.00;;;;2043107;29;20220;-65
2022/06/18 03:51:43;;;;;;;3.40;2.90;;;;;24.50;100697.00;;;;2043792;28;20221;-65
2022/06/18 03:52:44;;;;;;;3.50;2.83;;;;;24.50;100697.00;;;;2044455;28;20232;-65
2022/06/18 03:53:44;;;;;;;4.63;3.30;;;;;24.50;100686.00;;;;2044571;28;20225;-64
2022/06/18 03:54:44;;;;;;;3.90;3.23;;;;;24.50;100695.00;;;;2043750;28;20224;-65
2022/06/18 03:55:45;;;;;;;3.10;2.80;;;;;24.50;100694.00;;;;2043682;28;20314;-65
2022/06/18 03:56:45;;;;;;;3.80;3.40;;;;;24.50;100697.00;;;;2043882;28;20227;-65
2022/06/18 03:57:46;;;;;;;4.00;3.60;;;;;24.50;100696.00;;;;2043369;28;20694;-65
2022/06/18 03:58:46;;;;;;;3.30;3.00;;;;;24.50;100695.00;;;;2043388;28;20683;-65
2022/06/18 03:59:46;;;;;;;3.67;3.37;;;;;24.50;100697.00;;;;2043637;28;20636;-65
2022/06/18 04:00:51;;;;;;;3.40;3.10;;;;;24.50;100628.00;;;;2044119;28;20235;-65
2022/06/18 04:01:51;;;;;;;4.00;3.15;;;;;24.50;100690.00;;;;2035990;28;20225;-65
2022/06/18 04:02:52;;;;;;;3.00;2.80;;;;;24.50;100692.00;;;;2036212;28;20228;-65
2022/06/18 04:03:52;;;;;;;3.80;3.17;;;;;24.50;100697.00;;;;2044427;28;20282;-65
2022/06/18 04:04:53;;;;;;;3.03;2.80;;;;;24.50;100691.00;;;;2043731;28;20219;-66
2022/06/18 04:05:53;;;;;;;3.30;2.93;;;;;24.50;100694.00;;;;2042929;28;20235;-65
2022/06/18 04:06:53;;;;;;;3.40;3.10;;;;;24.50;100692.00;;;;2042973;28;20699;-65
2022/06/18 04:07:54;;;;;;;3.40;3.20;;;;;24.50;100696.00;;;;2034795;29;20712;-65
2022/06/18 04:08:54;;;;;;;3.23;2.93;;;;;24.50;100690.00;;;;2035539;29;20278;-66
2022/06/18 04:09:56;;;;;;;3.10;2.80;;;;;24.50;100693.00;;;;2044323;28;20217;-65
2022/06/18 04:10:57;;;;;;;2.80;2.60;;;;;24.50;100694.00;;;;2044094;28;20211;-65
2022/06/18 04:11:58;;;;;;;4.07;3.00;;;;;24.50;100693.00;;;;2044219;28;20271;-65
2022/06/18 04:12:59;;;;;;;2.92;2.70;;;;;24.50;100692.00;;;;2043296;28;20223;-65
2022/06/18 04:13:59;;;;;;;3.53;3.00;;;;;24.50;100692.00;;;;2043368;28;20216;-65
2022/06/18 04:14:59;;;;;;;2.90;2.70;;;;;24.50;100691.00;;;;2042766;28;20220;-65
2022/06/18 04:16:00;;;;;;;3.00;2.77;;;;;24.50;100691.00;;;;2042808;28;20620;-65
2022/06/18 04:17:01;;;;;;;3.13;2.83;;;;;24.50;100693.00;;;;2043672;28;20585;-66
2022/06/18 04:18:02;;;;;;;4.55;3.30;;;;;24.50;100694.00;;;;2043858;28;20268;-66
2022/06/18 04:19:03;;;;;;;3.97;3.07;;;;;24.50;100695.00;;;;2043986;28;20221;-65
2022/06/18 04:20:04;;;;;;;3.13;2.83;;;;;24.50;100696.00;;;;2044009;28;20462;-65
2022/06/18 04:21:04;;;;;;;2.83;2.63;;;;;24.50;100687.00;;;;2042833;28;20282;-66
2022/06/18 04:22:04;;;;;;;3.30;3.00;;;;;24.50;100700.00;;;;2043170;28;20212;-65
2022/06/18 04:23:05;;;;;;;3.30;3.00;;;;;24.50;100694.00;;;;2042959;28;20216;-65
2022/06/18 04:24:05;;;;;;;3.40;3.10;;;;;24.50;100694.00;;;;2042958;28;20216;-65
2022/06/18 04:25:06;;;;;;;4.03;3.10;;;;;24.50;100693.00;;;;2042636;29;20791;-65
2022/06/18 04:26:06;;;;;;;3.90;3.10;;;;;24.50;100708.00;;;;2043652;28;20304;-65
2022/06/18 04:27:07;;;;;;;3.33;3.00;;;;;24.50;100696.00;;;;2043915;28;20532;-65
2022/06/18 04:28:11;;;;;;;3.57;3.23;;;;;24.50;100692.00;;;;2044056;28;20212;-65
2022/06/18 04:29:12;;;;;;;2.72;2.53;;;;;24.50;100700.00;;;;2034600;28;20215;-65
2022/06/18 04:30:13;;;;;;;3.33;3.03;;;;;24.50;100698.00;;;;2035083;29;20951;-65
2022/06/18 04:31:13;;;;;;;3.57;3.27;;;;;24.50;100694.00;;;;2043136;28;20212;-65
2022/06/18 04:32:13;;;;;;;3.67;3.03;;;;;24.50;100698.00;;;;2042889;28;20360;-65
2022/06/18 04:33:14;;;;;;;3.00;2.80;;;;;24.50;100697.00;;;;2043512;28;20704;-65
2022/06/18 04:34:14;;;;;;;3.10;2.80;;;;;24.50;100692.00;;;;2043923;28;20216;-65
2022/06/18 04:35:14;;;;;;;3.20;2.93;;;;;24.50;100692.00;;;;2043866;28;20712;-65
2022/06/18 04:36:19;;;;;;;3.43;3.03;;;;;24.50;100692.00;;;;2043940;28;20204;-65
2022/06/18 04:37:20;;;;;;;3.30;3.05;;;;;24.50;100692.00;;;;2042984;28;20223;-66
2022/06/18 04:38:20;;;;;;;3.00;2.80;;;;;24.50;100696.00;;;;2043248;28;20296;-65
2022/06/18 04:39:21;;;;;;;3.20;3.00;;;;;24.50;100691.00;;;;2042915;28;20232;-65
2022/06/18 04:40:26;;;;;;;2.70;2.50;;;;;24.50;100695.00;;;;2042818;28;20700;-65
2022/06/18 04:41:26;;;;;;;3.00;2.80;;;;;24.50;100697.00;;;;2043598;28;20253;-65
2022/06/18 04:42:26;;;;;;;2.90;2.60;;;;;24.50;100693.00;;;;2044171;28;20224;-65
2022/06/18 04:43:27;;;;;;;2.80;2.60;;;;;24.50;100694.00;;;;2044089;28;20721;-65
2022/06/18 04:44:27;;;;;;;3.13;2.80;;;;;24.50;100689.00;;;;2043525;28;20239;-65
2022/06/18 04:45:27;;;;;;;3.10;2.87;;;;;24.50;100690.00;;;;2043350;28;20228;-65
2022/06/18 04:46:28;;;;;;;3.50;2.97;;;;;24.50;100687.00;;;;2042692;28;20227;-65
2022/06/18 04:47:28;;;;;;;3.80;2.63;;;;;24.50;100687.00;;;;2042298;28;20235;-65
2022/06/18 04:48:28;;;;;;;2.93;2.70;;;;;24.50;100685.00;;;;2043112;28;20604;-66
2022/06/18 04:49:29;;;;;;;3.80;2.90;;;;;24.50;100684.00;;;;2043730;28;20315;-65
2022/06/18 04:50:32;;;;;;;2.87;2.60;;;;;24.50;100692.00;;;;2043950;28;20249;-65
2022/06/18 04:51:32;;;;;;;3.30;3.00;;;;;24.50;100686.00;;;;2043839;28;20216;-65
2022/06/18 04:52:32;;;;;;;2.90;2.70;;;;;24.50;100689.00;;;;2043403;28;20223;-65
2022/06/18 04:53:32;;;;;;;3.73;3.00;;;;;24.50;100689.00;;;;2043277;28;20212;-65
2022/06/18 04:54:33;;;;;;;4.07;2.90;;;;;24.50;100683.00;;;;2043000;28;20250;-65
2022/06/18 04:55:33;;;;;;;3.20;3.00;;;;;24.50;100684.00;;;;2043292;28;20213;-65
2022/06/18 04:56:34;;;;;;;3.10;2.80;;;;;24.50;100686.00;;;;2043315;28;20326;-65
2022/06/18 04:57:35;;;;;;;3.20;2.90;;;;;24.50;100683.00;;;;2043854;28;20221;-65
2022/06/18 04:58:35;;;;;;;3.10;2.60;;;;;24.50;100679.00;;;;2044002;28;20957;-65
2022/06/18 04:59:35;;;;;;;3.10;2.80;;;;;24.50;100676.00;;;;2043831;28;20315;-65
2022/06/18 05:00:37;;;;;;;3.20;2.90;;;;;24.50;100677.00;;;;2043910;28;20232;-65
2022/06/18 05:01:37;;;;;;;4.32;3.30;;;;;24.50;100682.00;;;;2043149;28;20220;-65
2022/06/18 05:02:37;;;;;;;4.07;3.43;;;;;24.50;100680.00;;;;2043188;28;20291;-65
2022/06/18 05:03:38;;;;;;;3.33;2.83;;;;;24.50;100680.00;;;;2043174;28;20240;-65
2022/06/18 05:04:38;;;;;;;3.70;3.30;;;;;24.50;100674.00;;;;2043173;28;20232;-65
2022/06/18 05:05:38;;;;;;;4.10;2.90;;;;;24.50;100675.00;;;;2043500;28;20239;-65
2022/06/18 05:06:39;;;;;;;4.60;3.43;;;;;24.50;100676.00;;;;2043945;28;20217;-65
2022/06/18 05:07:39;;;;;;;4.23;3.83;;;;;24.50;100673.00;;;;2043767;28;20675;-65
2022/06/18 05:08:39;;;;;;;3.30;3.00;;;;;24.50;100681.00;;;;2043568;28;20283;-65
2022/06/18 05:09:40;;;;;;;4.50;3.67;;;;;24.50;100679.00;;;;2042865;28;20216;-65
2022/06/18 05:10:40;;;;;;;3.60;3.30;;;;;24.50;100677.00;;;;2042308;29;20212;-66
2022/06/18 05:11:42;;;;;;;3.40;3.10;;;;;24.50;100682.00;;;;2042527;28;20228;-65
2022/06/18 05:12:42;;;;;;;3.63;3.25;;;;;24.50;100684.00;;;;2042898;28;20220;-65
2022/06/18 05:13:43;;;;;;;3.63;3.30;;;;;24.50;100688.00;;;;2042728;28;20213;-66
2022/06/18 05:14:43;;;;;;;3.63;3.10;;;;;24.50;100685.00;;;;2042418;28;20244;-65